createdAt,value
2019-01-24T00:00:26.664Z,36.37
2019-01-24T00:02:55.244Z,34.40
2019-01-24T00:05:23.696Z,37.87
2019-01-24T00:07:52.574Z,36.73
2019-01-24T00:10:21.628Z,36.60
2019-01-24T00:12:50.503Z,37.40
2019-01-24T00:15:19.370Z,35.37
2019-01-24T00:17:48.918Z,36.13
2019-01-24T00:20:18.856Z,36.00
2019-01-24T00:22:48.262Z,36.33
2019-01-24T00:25:17.096Z,35.30
2019-01-24T00:27:45.566Z,35.53
2019-01-24T00:30:19.744Z,35.03
2019-01-24T00:32:48.567Z,35.43
2019-01-24T00:35:17.582Z,35.50
2019-01-24T00:37:46.371Z,36.27
2019-01-24T00:40:18.241Z,34.50
2019-01-24T00:42:47.025Z,36.90
2019-01-24T00:45:16.281Z,36.10
2019-01-24T00:47:44.809Z,33.80
2019-01-24T00:50:15.679Z,38.20
2019-01-24T00:52:44.876Z,31.90
2019-01-24T00:55:15.020Z,34.83
2019-01-24T00:57:43.883Z,35.73
2019-01-24T01:00:20.883Z,33.67
2019-01-24T01:02:49.801Z,34.13
2019-01-24T01:05:18.520Z,32.33
2019-01-24T01:07:47.157Z,35.27
2019-01-24T01:10:17.333Z,36.60
2019-01-24T01:12:45.858Z,36.27
2019-01-24T01:15:16.741Z,36.10
2019-01-24T01:17:46.262Z,36.57
2019-01-24T01:20:17.252Z,37.47
2019-01-24T01:22:45.731Z,36.03
2019-01-24T01:25:14.593Z,38.30
2019-01-24T01:27:43.461Z,37.63
2019-01-24T01:30:17.560Z,37.10
2019-01-24T01:32:46.084Z,35.93
2019-01-24T01:35:14.982Z,33.30
2019-01-24T01:37:43.758Z,34.27
2019-01-24T01:40:15.128Z,35.53
2019-01-24T01:42:43.717Z,34.50
2019-01-24T01:45:18.015Z,34.13
2019-01-24T01:47:46.902Z,33.00
2019-01-24T01:50:20.712Z,35.50
2019-01-24T01:52:49.589Z,34.87
2019-01-24T01:55:18.205Z,35.23
2019-01-24T01:57:46.971Z,37.23
2019-01-24T02:00:21.081Z,37.80
2019-01-24T02:02:50.161Z,38.07
2019-01-24T02:05:19.155Z,36.33
2019-01-24T02:07:48.269Z,34.90
2019-01-24T02:10:21.708Z,34.77
2019-01-24T02:12:50.536Z,33.27
2019-01-24T02:15:19.725Z,37.60
2019-01-24T02:17:48.245Z,35.80
2019-01-24T02:20:22.454Z,35.37
2019-01-24T02:22:51.527Z,34.53
2019-01-24T02:25:20.055Z,33.83
2019-01-24T02:27:48.579Z,29.80
2019-01-24T02:30:22.602Z,33.93
2019-01-24T02:32:51.053Z,32.73
2019-01-24T02:35:19.898Z,34.77
2019-01-24T02:37:48.597Z,37.23
2019-01-24T02:40:17.317Z,33.23
2019-01-24T02:42:45.787Z,35.63
2019-01-24T02:45:18.003Z,33.67
2019-01-24T02:47:46.996Z,37.63
2019-01-24T02:50:17.877Z,35.80
2019-01-24T02:52:46.545Z,36.13
2019-01-24T02:55:16.029Z,33.77
2019-01-24T02:57:44.895Z,32.17
2019-01-24T03:00:16.293Z,36.50
2019-01-24T03:02:44.821Z,32.90
2019-01-24T03:05:16.477Z,34.83
2019-01-24T03:07:45.241Z,38.20
2019-01-24T03:10:15.179Z,35.97
2019-01-24T03:12:44.037Z,36.07
2019-01-24T03:15:15.496Z,35.30
2019-01-24T03:17:44.102Z,33.43
2019-01-24T03:20:14.381Z,31.17
2019-01-24T03:22:43.299Z,31.57
2019-01-24T03:25:14.351Z,37.20
2019-01-24T03:27:43.213Z,34.30
2019-01-24T03:30:15.014Z,35.13
2019-01-24T03:32:43.569Z,34.03
2019-01-24T03:35:15.339Z,31.57
2019-01-24T03:37:44.137Z,29.27
2019-01-24T03:40:14.417Z,37.70
2019-01-24T03:42:43.040Z,35.17
2019-01-24T03:45:13.957Z,33.23
2019-01-24T03:47:42.721Z,33.57
2019-01-24T03:50:14.373Z,35.37
2019-01-24T03:52:43.368Z,33.23
2019-01-24T03:55:13.672Z,32.47
2019-01-24T03:57:42.231Z,35.03
2019-01-24T04:00:15.125Z,35.47
2019-01-24T04:02:43.986Z,35.83
2019-01-24T04:05:13.761Z,36.43
2019-01-24T04:07:42.567Z,37.23
2019-01-24T04:10:16.758Z,36.67
2019-01-24T04:12:45.775Z,36.13
2019-01-24T04:15:17.341Z,37.03
2019-01-24T04:17:46.093Z,38.50
2019-01-24T04:20:14.725Z,35.30
2019-01-24T04:22:43.182Z,34.77
2019-01-24T04:25:11.892Z,34.67
2019-01-24T04:27:40.427Z,35.23
2019-01-24T04:30:11.983Z,38.17
2019-01-24T04:32:40.752Z,36.33
2019-01-24T04:35:10.814Z,36.00
2019-01-24T04:37:39.674Z,33.90
2019-01-24T04:40:11.616Z,34.33
2019-01-24T04:42:40.175Z,38.03
2019-01-24T04:45:11.349Z,38.33
2019-01-24T04:47:39.828Z,36.90
2019-01-24T04:50:16.400Z,42.13
2019-01-24T04:52:45.022Z,36.33
2019-01-24T04:55:18.018Z,38.50
2019-01-24T04:57:46.821Z,40.73
2019-01-24T05:00:23.641Z,36.27
2019-01-24T05:02:52.522Z,38.30
2019-01-24T05:05:27.565Z,37.87
2019-01-24T05:07:51.531Z,38.43
2019-01-24T05:10:20.413Z,38.60
2019-01-24T05:12:48.947Z,38.40
2019-01-24T05:15:18.006Z,37.37
2019-01-24T05:17:46.465Z,36.77
2019-01-24T05:20:15.371Z,37.83
2019-01-24T05:22:43.840Z,32.83
2019-01-24T05:25:14.511Z,36.00
2019-01-24T05:27:43.264Z,39.20
2019-01-24T05:30:15.048Z,37.70
2019-01-24T05:32:43.507Z,35.80
2019-01-24T05:35:12.437Z,38.70
2019-01-24T05:37:40.978Z,37.80
2019-01-24T05:40:10.548Z,38.40
2019-01-24T05:42:39.385Z,36.60
2019-01-24T05:45:11.231Z,37.63
2019-01-24T05:47:40.130Z,38.20
2019-01-24T05:50:10.950Z,35.90
2019-01-24T05:52:39.503Z,35.60
2019-01-24T05:55:10.144Z,35.53
2019-01-24T05:57:38.959Z,35.63
2019-01-24T06:00:10.704Z,35.40
2019-01-24T06:02:39.494Z,34.77
2019-01-24T06:05:10.305Z,35.87
2019-01-24T06:07:39.119Z,31.43
2019-01-24T06:10:13.625Z,35.23
2019-01-24T06:12:42.428Z,35.67
2019-01-24T06:15:16.320Z,35.73
2019-01-24T06:17:45.099Z,32.83
2019-01-24T06:20:14.098Z,33.07
2019-01-24T06:22:42.996Z,34.77
2019-01-24T06:25:14.137Z,35.10
2019-01-24T06:27:42.836Z,33.43
2019-01-24T06:30:16.720Z,35.77
2019-01-24T06:32:45.620Z,32.27
2019-01-24T06:35:15.706Z,32.20
2019-01-24T06:37:44.148Z,35.50
2019-01-24T06:40:15.381Z,35.73
2019-01-24T06:42:43.831Z,35.97
2019-01-24T06:45:14.980Z,34.97
2019-01-24T06:47:43.457Z,34.57
2019-01-24T06:50:13.731Z,35.23
2019-01-24T06:52:42.646Z,33.30
2019-01-24T06:55:14.481Z,31.80
2019-01-24T06:57:43.301Z,34.70
2019-01-24T07:00:15.224Z,27.80
2019-01-24T07:02:44.455Z,34.80
2019-01-24T07:05:13.400Z,34.17
2019-01-24T07:07:42.920Z,34.87
2019-01-24T07:10:19.829Z,34.27
2019-01-24T07:12:48.645Z,34.37
2019-01-24T07:15:19.804Z,33.90
2019-01-24T07:17:48.296Z,35.50
2019-01-24T07:20:18.775Z,31.60
2019-01-24T07:22:47.609Z,33.13
2019-01-24T07:25:19.500Z,35.83
2019-01-24T07:27:48.298Z,36.53
2019-01-24T07:30:20.593Z,35.43
2019-01-24T07:32:49.306Z,36.40
2019-01-24T07:35:19.044Z,35.37
2019-01-24T07:37:47.482Z,31.57
2019-01-24T07:40:17.997Z,36.47
2019-01-24T07:42:46.794Z,37.53
2019-01-24T07:45:21.301Z,35.97
2019-01-24T07:47:49.805Z,37.00
2019-01-24T07:50:18.553Z,38.63
2019-01-24T07:52:47.286Z,38.33
2019-01-24T07:55:16.223Z,37.63
2019-01-24T07:57:45.109Z,36.57
2019-01-24T08:00:22.492Z,36.57
2019-01-24T08:02:51.030Z,35.53
2019-01-24T08:05:19.985Z,41.20
2019-01-24T08:07:48.541Z,38.60
2019-01-24T08:10:19.405Z,25.47
2019-01-24T08:12:50.874Z,36.30
2019-01-24T08:15:22.866Z,34.23
2019-01-24T08:17:51.709Z,36.43
2019-01-24T08:20:22.431Z,36.83
2019-01-24T08:23:07.500Z,35.67
2019-01-24T08:25:40.557Z,38.03
2019-01-24T08:28:09.391Z,35.63
2019-01-24T08:30:37.916Z,34.20
2019-01-24T08:33:08.669Z,36.33
2019-01-24T08:35:37.715Z,36.83
2019-01-24T08:38:06.586Z,36.97
2019-01-24T08:40:36.754Z,34.40
2019-01-24T08:43:05.345Z,36.97
2019-01-24T08:45:34.045Z,35.70
2019-01-24T08:48:04.306Z,36.70
2019-01-24T08:50:32.775Z,37.37
2019-01-24T08:53:01.647Z,35.33
2019-01-24T08:55:39.361Z,35.53
2019-01-24T08:58:07.889Z,33.10
2019-01-24T09:00:48.590Z,38.07
2019-01-24T09:03:17.974Z,33.43
2019-01-24T09:05:46.777Z,37.23
2019-01-24T09:08:15.541Z,36.00
2019-01-24T09:10:45.027Z,35.97
2019-01-24T09:13:13.801Z,34.80
2019-01-24T09:15:42.656Z,31.60
2019-01-24T09:18:11.179Z,34.70
2019-01-24T09:20:39.893Z,35.43
2019-01-24T09:23:11.851Z,36.70
2019-01-24T09:25:40.683Z,35.90
2019-01-24T09:28:14.799Z,33.13
2019-01-24T09:30:42.134Z,36.13
2019-01-24T09:33:10.579Z,35.03
2019-01-24T09:35:39.489Z,38.60
2019-01-24T09:38:08.618Z,37.53
2019-01-24T09:40:37.345Z,37.13
2019-01-24T09:43:06.169Z,36.63
2019-01-24T09:45:35.174Z,38.23
2019-01-24T09:48:05.346Z,35.60
2019-01-24T09:50:34.268Z,36.37
2019-01-24T09:53:03.051Z,33.37
2019-01-24T09:55:31.750Z,36.73
2019-01-24T09:58:00.502Z,34.33
2019-01-24T10:00:34.030Z,37.67
2019-01-24T10:03:03.002Z,35.63
2019-01-24T10:05:31.904Z,35.10
2019-01-24T10:08:00.746Z,35.30
2019-01-24T10:10:29.286Z,35.13
2019-01-24T10:12:58.658Z,36.90
2019-01-24T10:15:27.989Z,36.00
2019-01-24T10:17:56.720Z,36.60
2019-01-24T10:20:26.768Z,38.70
2019-01-24T10:22:55.530Z,37.83
2019-01-24T10:25:33.368Z,36.23
2019-01-24T10:28:02.318Z,37.20
2019-01-24T10:30:31.099Z,36.53
2019-01-24T10:33:00.114Z,37.43
2019-01-24T10:35:28.936Z,34.70
2019-01-24T10:37:57.679Z,30.77
2019-01-24T10:40:29.451Z,31.87
2019-01-24T10:42:58.366Z,36.90
2019-01-24T10:45:27.218Z,38.00
2019-01-24T10:47:56.050Z,35.97
2019-01-24T10:50:26.417Z,36.67
2019-01-24T10:52:55.417Z,36.73
2019-01-24T10:55:26.659Z,36.40
2019-01-24T10:57:57.321Z,36.23
2019-01-24T11:00:28.331Z,36.37
2019-01-24T11:02:57.120Z,34.73
2019-01-24T11:05:27.080Z,39.03
2019-01-24T11:07:55.970Z,38.10
2019-01-24T11:10:24.424Z,35.67
2019-01-24T11:12:53.296Z,33.60
2019-01-24T11:15:25.890Z,36.93
2019-01-24T11:17:54.440Z,35.93
2019-01-24T11:20:23.111Z,35.63
2019-01-24T11:22:51.740Z,36.40
2019-01-24T11:25:25.315Z,37.53
2019-01-24T11:27:54.329Z,33.87
2019-01-24T11:30:27.725Z,36.63
2019-01-24T11:32:57.170Z,35.30
2019-01-24T11:35:28.724Z,33.50
2019-01-24T11:37:57.767Z,37.33
2019-01-24T11:40:26.383Z,36.23
2019-01-24T11:42:54.880Z,37.33
2019-01-24T11:45:33.530Z,36.43
2019-01-24T11:48:01.986Z,36.27
2019-01-24T11:50:30.512Z,38.53
2019-01-24T11:53:05.599Z,38.33
2019-01-24T11:55:34.414Z,40.13
2019-01-24T11:58:02.945Z,38.23
2019-01-24T12:00:38.544Z,39.57
2019-01-24T12:03:07.752Z,38.37
2019-01-24T12:05:36.256Z,39.23
2019-01-24T12:08:05.625Z,39.67
2019-01-24T12:10:34.394Z,40.20
2019-01-24T12:13:02.871Z,39.30
2019-01-24T12:15:31.978Z,36.57
2019-01-24T12:18:00.461Z,38.43
2019-01-24T12:20:29.197Z,37.53
2019-01-24T12:22:58.070Z,37.10
2019-01-24T12:25:26.642Z,38.80
2019-01-24T12:27:55.442Z,36.87
2019-01-24T12:30:32.570Z,35.87
2019-01-24T12:33:02.002Z,41.70
2019-01-24T12:35:33.230Z,39.73
2019-01-24T12:38:03.660Z,39.37
2019-01-24T12:40:33.207Z,37.27
2019-01-24T12:43:01.840Z,38.23
2019-01-24T12:45:35.422Z,38.93
2019-01-24T12:48:04.475Z,37.30
2019-01-24T12:50:33.145Z,40.13
2019-01-24T12:53:01.785Z,39.10
2019-01-24T12:55:30.385Z,36.70
2019-01-24T12:57:58.836Z,40.33
2019-01-24T13:00:32.508Z,36.03
2019-01-24T13:03:01.036Z,37.03
2019-01-24T13:05:29.841Z,38.57
2019-01-24T13:07:58.329Z,39.93
2019-01-24T13:10:27.909Z,36.03
2019-01-24T13:12:56.793Z,37.40
2019-01-24T13:15:27.602Z,39.97
2019-01-24T13:17:56.317Z,39.03
2019-01-24T13:20:25.097Z,40.20
2019-01-24T13:22:53.572Z,37.60
2019-01-24T13:25:30.683Z,40.43
2019-01-24T13:27:59.220Z,43.07
2019-01-24T13:30:31.190Z,38.93
2019-01-24T13:33:00.144Z,40.30
2019-01-24T13:35:28.781Z,41.77
2019-01-24T13:37:57.570Z,39.87
2019-01-24T13:40:28.316Z,37.57
2019-01-24T13:42:57.449Z,42.50
2019-01-24T13:45:29.559Z,38.03
2019-01-24T13:47:58.517Z,39.53
2019-01-24T13:50:27.277Z,34.97
2019-01-24T13:52:56.133Z,38.13
2019-01-24T13:55:24.658Z,39.83
2019-01-24T13:57:53.733Z,37.37
2019-01-24T14:00:25.233Z,36.13
2019-01-24T14:03:00.377Z,36.97
2019-01-24T14:05:29.175Z,38.27
2019-01-24T14:07:58.581Z,37.63
2019-01-24T14:10:28.546Z,36.27
2019-01-24T14:12:57.267Z,39.80
2019-01-24T14:15:26.081Z,39.23
2019-01-24T14:17:54.876Z,37.87
2019-01-24T14:20:23.858Z,39.07
2019-01-24T14:22:52.501Z,38.70
2019-01-24T14:25:22.055Z,39.30
2019-01-24T14:27:51.077Z,34.23
2019-01-24T14:30:24.305Z,39.90
2019-01-24T14:32:52.935Z,37.73
2019-01-24T14:35:22.177Z,36.70
2019-01-24T14:37:51.221Z,36.23
2019-01-24T14:40:20.304Z,38.23
2019-01-24T14:42:49.065Z,36.23
2019-01-24T14:45:23.692Z,39.23
2019-01-24T14:47:52.589Z,38.77
2019-01-24T14:50:29.047Z,37.53
2019-01-24T14:52:57.867Z,37.30
2019-01-24T14:55:26.555Z,39.57
2019-01-24T14:57:56.613Z,37.70
2019-01-24T15:00:27.579Z,36.60
2019-01-24T15:02:56.057Z,42.80
2019-01-24T15:05:24.654Z,41.00
2019-01-24T15:07:53.581Z,41.23
2019-01-24T15:10:22.297Z,41.03
2019-01-24T15:12:51.358Z,43.20
2019-01-24T15:15:22.244Z,37.40
2019-01-24T15:17:51.163Z,39.67
2019-01-24T15:20:20.912Z,38.73
2019-01-24T15:22:49.571Z,39.73
2019-01-24T15:25:20.638Z,37.37
2019-01-24T15:27:49.355Z,39.97
2019-01-24T15:30:29.298Z,40.10
2019-01-24T15:32:57.843Z,41.53
2019-01-24T15:35:26.766Z,42.87
2019-01-24T15:37:55.656Z,42.23
2019-01-24T15:40:29.705Z,40.27
2019-01-24T15:42:58.292Z,40.10
2019-01-24T15:45:26.842Z,34.63
2019-01-24T15:47:55.960Z,38.60
2019-01-24T15:50:25.433Z,39.43
2019-01-24T15:52:54.264Z,39.97
2019-01-24T15:55:23.159Z,37.90
2019-01-24T15:57:51.933Z,41.30
2019-01-24T16:00:26.327Z,38.90
2019-01-24T16:02:55.150Z,41.67
2019-01-24T16:05:24.107Z,40.17
2019-01-24T16:07:53.954Z,39.77
2019-01-24T16:10:24.216Z,39.53
2019-01-24T16:12:53.293Z,38.87
2019-01-24T16:15:33.639Z,40.63
2019-01-24T16:18:02.300Z,40.77
2019-01-24T16:20:31.621Z,42.97
2019-01-24T16:23:00.224Z,41.37
2019-01-24T16:25:31.902Z,41.63
2019-01-24T16:28:00.397Z,43.53
2019-01-24T16:30:32.544Z,39.30
2019-01-24T16:33:01.860Z,41.23
2019-01-24T16:35:31.855Z,41.53
2019-01-24T16:38:00.858Z,44.07
2019-01-24T16:40:30.106Z,42.90
2019-01-24T16:42:59.526Z,43.00
2019-01-24T16:45:29.440Z,41.63
2019-01-24T16:48:00.066Z,39.40
2019-01-24T16:50:29.806Z,40.13
2019-01-24T16:53:00.955Z,41.70
2019-01-24T16:55:29.591Z,39.93
2019-01-24T16:57:58.482Z,38.90
2019-01-24T17:00:39.246Z,39.37
2019-01-24T17:03:07.801Z,39.63
2019-01-24T17:05:36.421Z,42.17
2019-01-24T17:08:05.869Z,41.87
2019-01-24T17:10:34.506Z,40.60
2019-01-24T17:13:03.091Z,41.30
2019-01-24T17:15:34.026Z,42.93
2019-01-24T17:18:02.636Z,43.37
2019-01-24T17:20:32.149Z,40.83
2019-01-24T17:23:00.742Z,45.37
2019-01-24T17:25:33.692Z,42.53
2019-01-24T17:28:02.238Z,44.00
2019-01-24T17:30:32.414Z,42.63
2019-01-24T17:33:02.444Z,41.57
2019-01-24T17:35:30.988Z,44.53
2019-01-24T17:37:59.464Z,42.77
2019-01-24T17:40:32.424Z,44.33
2019-01-24T17:43:01.244Z,43.90
2019-01-24T17:45:32.041Z,43.40
2019-01-24T17:48:01.202Z,40.87
2019-01-24T17:50:29.969Z,41.33
2019-01-24T17:52:58.858Z,41.93
2019-01-24T17:55:36.220Z,39.67
2019-01-24T17:58:06.604Z,44.20
2019-01-24T18:00:36.770Z,40.50
2019-01-24T18:03:06.169Z,41.33
2019-01-24T18:05:35.096Z,40.97
2019-01-24T18:08:03.985Z,42.53
2019-01-24T18:10:33.591Z,42.77
2019-01-24T18:13:06.369Z,41.20
2019-01-24T18:15:36.796Z,43.83
2019-01-24T18:18:08.211Z,42.37
2019-01-24T18:20:37.969Z,42.07
2019-01-24T18:23:09.093Z,44.37
2019-01-24T18:25:41.375Z,37.20
2019-01-24T18:28:13.088Z,43.47
2019-01-24T18:30:42.305Z,42.10
2019-01-24T18:33:10.767Z,42.47
2019-01-24T18:35:49.280Z,42.00
2019-01-24T18:38:18.080Z,42.33
2019-01-24T18:40:46.649Z,42.27
2019-01-24T18:43:19.981Z,43.60
2019-01-24T18:45:54.068Z,45.73
2019-01-24T18:48:22.865Z,41.10
2019-01-24T18:50:51.810Z,41.47
2019-01-24T18:53:20.529Z,43.20
2019-01-24T18:55:49.317Z,41.60
2019-01-24T18:58:18.017Z,43.37
2019-01-24T19:00:46.896Z,43.00
2019-01-24T19:03:18.356Z,45.43
2019-01-24T19:05:46.890Z,42.33
2019-01-24T19:08:15.520Z,42.73
2019-01-24T19:10:44.277Z,45.47
2019-01-24T19:13:13.087Z,45.50
2019-01-24T19:15:41.689Z,43.57
2019-01-24T19:18:10.959Z,41.80
2019-01-24T19:20:39.755Z,43.47
2019-01-24T19:23:08.381Z,43.53
2019-01-24T19:25:37.336Z,44.17
2019-01-24T19:28:06.388Z,41.30
2019-01-24T19:30:35.411Z,42.50
2019-01-24T19:33:04.557Z,40.43
2019-01-24T19:35:33.064Z,40.97
2019-01-24T19:38:02.412Z,45.37
2019-01-24T19:40:33.550Z,41.97
2019-01-24T19:43:02.035Z,43.70
2019-01-24T19:45:30.687Z,42.27
2019-01-24T19:47:59.216Z,41.43
2019-01-24T19:50:31.846Z,39.00
2019-01-24T19:53:00.386Z,36.80
2019-01-24T19:55:29.013Z,39.47
2019-01-24T19:57:57.847Z,41.27
2019-01-24T20:00:28.939Z,39.87
2019-01-24T20:02:57.738Z,40.13
2019-01-24T20:05:26.446Z,38.50
2019-01-24T20:07:55.018Z,38.97
2019-01-24T20:10:25.918Z,39.50
2019-01-24T20:12:54.787Z,39.53
2019-01-24T20:15:25.954Z,37.97
2019-01-24T20:17:55.029Z,37.50
2019-01-24T20:20:24.022Z,39.77
2019-01-24T20:22:53.465Z,37.33
2019-01-24T20:25:31.379Z,38.67
2019-01-24T20:28:00.386Z,38.87
2019-01-24T20:30:31.586Z,38.90
2019-01-24T20:33:01.698Z,38.83
2019-01-24T20:35:46.642Z,35.37
2019-01-24T20:38:15.237Z,38.63
2019-01-24T20:40:46.278Z,36.10
2019-01-24T20:43:15.732Z,37.63
2019-01-24T20:45:44.749Z,39.30
2019-01-24T20:48:14.287Z,40.50
2019-01-24T20:50:43.799Z,38.43
2019-01-24T20:53:12.556Z,38.53
2019-01-24T20:55:41.130Z,38.80
2019-01-24T20:58:10.132Z,37.90
2019-01-24T21:00:38.975Z,38.33
2019-01-24T21:03:08.876Z,38.27
2019-01-24T21:05:39.107Z,35.37
2019-01-24T21:08:08.094Z,40.70
2019-01-24T21:10:37.727Z,39.70
2019-01-24T21:13:06.713Z,34.90
2019-01-24T21:15:35.564Z,38.93
2019-01-24T21:18:04.600Z,38.00
2019-01-24T21:20:33.764Z,41.50
2019-01-24T21:23:02.417Z,36.17
2019-01-24T21:25:31.055Z,36.03
2019-01-24T21:27:59.654Z,37.83
2019-01-24T21:30:36.223Z,38.37
2019-01-24T21:33:07.015Z,39.00
2019-01-24T21:35:35.650Z,41.80
2019-01-24T21:38:05.455Z,37.60
2019-01-24T21:40:34.297Z,38.53
2019-01-24T21:43:03.241Z,39.03
2019-01-24T21:45:36.982Z,38.27
2019-01-24T21:48:06.899Z,37.50
2019-01-24T21:50:35.599Z,40.17
2019-01-24T21:53:05.099Z,37.80
2019-01-24T21:55:34.408Z,36.33
2019-01-24T21:58:02.895Z,36.90
2019-01-24T22:00:31.873Z,40.17
2019-01-24T22:03:01.358Z,39.80
2019-01-24T22:05:30.217Z,38.27
2019-01-24T22:07:58.779Z,38.07
2019-01-24T22:10:29.977Z,40.23
2019-01-24T22:12:59.075Z,39.33
2019-01-24T22:15:29.587Z,39.83
2019-01-24T22:17:59.515Z,39.17
2019-01-24T22:20:28.913Z,39.67
2019-01-24T22:22:57.499Z,38.27
2019-01-24T22:25:34.873Z,40.27
2019-01-24T22:28:05.256Z,37.80
2019-01-24T22:30:38.517Z,38.67
2019-01-24T22:33:07.792Z,39.97
2019-01-24T22:35:36.836Z,41.23
2019-01-24T22:38:07.502Z,41.17
2019-01-24T22:40:37.547Z,40.47
2019-01-24T22:43:08.621Z,37.57
2019-01-24T22:45:38.129Z,40.70
2019-01-24T22:48:06.936Z,40.10
2019-01-24T22:50:35.576Z,40.23
2019-01-24T22:53:06.623Z,41.13
2019-01-24T22:55:35.662Z,40.53
2019-01-24T22:58:05.322Z,41.73
2019-01-24T23:00:50.678Z,40.50
2019-01-24T23:03:25.433Z,39.73
2019-01-24T23:05:54.019Z,36.87
2019-01-24T23:08:22.692Z,41.60
2019-01-24T23:10:52.370Z,40.60
2019-01-24T23:13:21.268Z,41.77
2019-01-24T23:15:50.529Z,40.10
2019-01-24T23:18:19.083Z,41.30
2019-01-24T23:20:47.951Z,39.93
2019-01-24T23:23:19.069Z,34.40
2019-01-24T23:25:47.633Z,39.47
2019-01-24T23:28:16.934Z,37.40
2019-01-24T23:30:46.167Z,39.87
2019-01-24T23:33:14.785Z,40.40
2019-01-24T23:35:43.707Z,39.07
2019-01-24T23:38:12.425Z,40.67
2019-01-24T23:40:41.343Z,40.77
2019-01-24T23:43:10.010Z,36.43
2019-01-24T23:45:41.243Z,36.67
2019-01-24T23:48:10.320Z,38.73
2019-01-24T23:50:39.915Z,41.70
2019-01-24T23:53:08.844Z,40.63
2019-01-24T23:55:37.398Z,37.87
2019-01-24T23:58:06.375Z,41.43
